createdAt,value
2017-11-27T00:00:28.475Z,99.99
2017-11-27T00:01:37.317Z,99.99
2017-11-27T00:02:46.154Z,99.99
2017-11-27T00:03:54.998Z,99.99
2017-11-27T00:05:03.839Z,99.99
2017-11-27T00:06:12.681Z,99.99
2017-11-27T00:07:21.810Z,99.99
2017-11-27T00:08:30.677Z,99.99
2017-11-27T00:09:39.489Z,99.99
2017-11-27T00:10:48.327Z,99.99
2017-11-27T00:11:57.748Z,99.99
2017-11-27T00:13:06.592Z,99.99
2017-11-27T00:14:15.438Z,99.99
2017-11-27T00:15:24.564Z,99.99
2017-11-27T00:16:33.694Z,99.99
2017-11-27T00:17:42.833Z,99.99
2017-11-27T00:18:51.671Z,99.99
2017-11-27T00:20:00.512Z,99.99
2017-11-27T00:21:09.354Z,99.99
2017-11-27T00:22:18.227Z,99.99
2017-11-27T00:23:27.364Z,99.99
2017-11-27T00:24:36.208Z,99.99
2017-11-27T00:25:45.048Z,99.99
2017-11-27T00:26:54.168Z,99.99
2017-11-27T00:28:03.006Z,99.99
2017-11-27T00:29:12.150Z,99.99
2017-11-27T00:30:21.283Z,99.99
2017-11-27T00:31:30.401Z,99.99
2017-11-27T00:32:39.242Z,99.99
2017-11-27T00:33:48.375Z,99.99
2017-11-27T00:34:57.660Z,99.99
2017-11-27T00:36:06.503Z,99.99
2017-11-27T00:37:15.347Z,99.99
2017-11-27T00:38:24.187Z,99.99
2017-11-27T00:39:33.030Z,99.99
2017-11-27T00:40:42.021Z,99.99
2017-11-27T00:41:50.864Z,99.99
2017-11-27T00:42:59.706Z,99.99
2017-11-27T00:44:08.547Z,99.99
2017-11-27T00:45:17.387Z,99.99
2017-11-27T00:46:26.379Z,99.99
2017-11-27T00:47:35.232Z,99.99
2017-11-27T00:48:44.060Z,99.99
2017-11-27T00:49:52.902Z,99.99
2017-11-27T00:51:01.745Z,99.99
2017-11-27T00:52:10.736Z,99.99
2017-11-27T00:53:19.577Z,99.99
2017-11-27T00:54:28.418Z,99.99
2017-11-27T00:55:37.262Z,99.99
2017-11-27T00:56:46.100Z,99.99
2017-11-27T00:57:54.944Z,99.99
2017-11-27T00:59:03.783Z,99.99
2017-11-27T01:00:12.630Z,99.99
2017-11-27T01:01:21.467Z,99.99
2017-11-27T01:02:30.309Z,99.99
2017-11-27T01:03:39.155Z,99.99
2017-11-27T01:04:47.997Z,99.99
2017-11-27T01:05:56.839Z,99.99
2017-11-27T01:07:05.683Z,99.99
2017-11-27T01:08:14.807Z,99.99
2017-11-27T01:09:23.797Z,99.99
2017-11-27T01:10:32.915Z,99.99
2017-11-27T01:11:41.752Z,99.99
2017-11-27T01:12:50.871Z,99.99
2017-11-27T01:13:59.717Z,99.99
2017-11-27T01:15:09.166Z,99.99
2017-11-27T01:16:18.005Z,99.99
2017-11-27T01:17:26.848Z,99.99
2017-11-27T01:18:35.685Z,99.99
2017-11-27T01:19:44.523Z,99.99
2017-11-27T01:20:53.512Z,99.99
2017-11-27T01:22:02.353Z,99.99
2017-11-27T01:23:11.192Z,99.99
2017-11-27T01:24:20.034Z,99.99
2017-11-27T01:25:28.875Z,99.99
2017-11-27T01:26:37.868Z,99.99
2017-11-27T01:27:47.268Z,99.99
2017-11-27T01:28:56.108Z,99.99
2017-11-27T01:30:04.953Z,99.99
2017-11-27T01:31:13.793Z,99.99
2017-11-27T01:32:22.640Z,99.99
2017-11-27T01:33:31.482Z,99.99
2017-11-27T01:34:40.317Z,99.99
2017-11-27T01:35:49.159Z,99.99
2017-11-27T01:36:58.276Z,99.99
2017-11-27T01:38:07.213Z,99.99
2017-11-27T01:39:16.355Z,99.99
2017-11-27T01:40:25.475Z,99.99
2017-11-27T01:41:34.317Z,99.99
2017-11-27T01:42:43.158Z,99.99
2017-11-27T01:43:52.050Z,99.99
2017-11-27T01:45:00.890Z,99.99
2017-11-27T01:46:09.727Z,99.99
2017-11-27T01:47:18.566Z,99.99
2017-11-27T01:48:27.407Z,99.99
2017-11-27T01:49:36.545Z,99.99
2017-11-27T01:50:45.388Z,99.99
2017-11-27T01:51:54.228Z,99.99
2017-11-27T01:53:03.068Z,99.99
2017-11-27T01:54:11.909Z,99.99
2017-11-27T01:55:20.900Z,99.99
2017-11-27T01:56:29.742Z,99.99
2017-11-27T01:57:38.583Z,99.99
2017-11-27T01:58:47.427Z,99.99
2017-11-27T01:59:56.269Z,99.99
2017-11-27T02:01:05.439Z,99.99
2017-11-27T02:02:14.281Z,99.99
2017-11-27T02:03:23.122Z,99.99
2017-11-27T02:04:31.961Z,99.99
2017-11-27T02:05:40.800Z,99.99
2017-11-27T02:06:49.640Z,99.99
2017-11-27T02:07:58.478Z,99.99
2017-11-27T02:09:07.316Z,99.99
2017-11-27T02:10:16.154Z,99.99
2017-11-27T02:11:24.994Z,99.99
2017-11-27T02:12:34.184Z,99.99
2017-11-27T02:13:43.025Z,99.99
2017-11-27T02:14:51.866Z,99.99
2017-11-27T02:16:00.995Z,99.99
2017-11-27T02:17:10.114Z,99.99
2017-11-27T02:18:19.098Z,99.99
2017-11-27T02:19:27.940Z,99.99
2017-11-27T02:20:36.781Z,99.99
2017-11-27T02:21:45.620Z,99.99
2017-11-27T02:22:54.739Z,99.99
2017-11-27T02:24:03.879Z,99.99
2017-11-27T02:25:12.719Z,99.99
2017-11-27T02:26:21.560Z,99.99
2017-11-27T02:27:30.398Z,99.99
2017-11-27T02:28:39.241Z,99.99
2017-11-27T02:29:48.680Z,99.99
2017-11-27T02:30:57.522Z,99.99
2017-11-27T02:32:06.365Z,99.99
2017-11-27T02:33:15.206Z,99.99
2017-11-27T02:34:24.046Z,99.99
2017-11-27T02:35:33.471Z,99.99
2017-11-27T02:36:42.313Z,99.99
2017-11-27T02:37:51.161Z,99.99
2017-11-27T02:39:00.000Z,99.99
2017-11-27T02:40:08.838Z,99.99
2017-11-27T02:41:17.878Z,99.99
2017-11-27T02:42:26.721Z,99.99
2017-11-27T02:43:35.845Z,99.99
2017-11-27T02:44:44.689Z,99.99
2017-11-27T02:45:53.525Z,99.99
2017-11-27T02:47:02.366Z,99.99
2017-11-27T02:48:11.204Z,99.99
2017-11-27T02:49:20.046Z,99.99
2017-11-27T02:50:28.890Z,99.99
2017-11-27T02:51:37.734Z,99.99
2017-11-27T02:52:46.725Z,99.99
2017-11-27T02:53:55.562Z,99.99
2017-11-27T02:55:04.405Z,99.99
2017-11-27T02:56:13.245Z,99.99
2017-11-27T02:57:22.087Z,99.99
2017-11-27T02:58:31.206Z,99.99
2017-11-27T02:59:40.049Z,99.99
2017-11-27T03:00:49.447Z,99.99
2017-11-27T03:01:58.287Z,99.99
2017-11-27T03:03:07.413Z,99.99
2017-11-27T03:04:16.259Z,99.99
2017-11-27T03:05:25.094Z,99.99
2017-11-27T03:06:33.933Z,99.99
2017-11-27T03:07:42.776Z,99.99
2017-11-27T03:08:51.618Z,99.99
2017-11-27T03:10:00.459Z,99.99
2017-11-27T03:11:09.299Z,99.99
2017-11-27T03:12:18.144Z,99.99
2017-11-27T03:13:27.263Z,99.99
2017-11-27T03:14:36.102Z,99.99
2017-11-27T03:15:45.041Z,99.99
2017-11-27T03:16:53.890Z,99.99
2017-11-27T03:18:02.723Z,99.99
2017-11-27T03:19:11.565Z,99.99
2017-11-27T03:20:20.407Z,99.99
2017-11-27T03:21:29.401Z,99.99
2017-11-27T03:22:38.244Z,99.99
2017-11-27T03:23:47.079Z,99.99
2017-11-27T03:24:55.923Z,99.99
2017-11-27T03:26:04.776Z,99.99
2017-11-27T03:27:13.899Z,99.99
2017-11-27T03:28:22.739Z,99.99
2017-11-27T03:29:31.578Z,99.99
2017-11-27T03:30:40.423Z,99.99
2017-11-27T03:31:49.559Z,99.99
2017-11-27T03:32:58.697Z,99.99
2017-11-27T03:34:07.547Z,99.99
2017-11-27T03:35:16.667Z,99.99
2017-11-27T03:36:25.791Z,99.99
2017-11-27T03:37:34.626Z,99.99
2017-11-27T03:38:43.853Z,99.99
2017-11-27T03:39:52.695Z,99.99
2017-11-27T03:41:01.539Z,99.99
2017-11-27T03:42:10.382Z,99.99
2017-11-27T03:43:19.223Z,99.99
2017-11-27T03:44:28.365Z,99.99
2017-11-27T03:45:37.205Z,99.99
2017-11-27T03:46:46.048Z,99.99
2017-11-27T03:47:55.161Z,99.99
2017-11-27T03:49:04.002Z,99.99
2017-11-27T03:50:12.841Z,99.99
2017-11-27T03:51:21.678Z,99.99
2017-11-27T03:52:30.519Z,99.99
2017-11-27T03:53:39.359Z,99.99
2017-11-27T03:54:48.211Z,99.99
2017-11-27T03:55:57.581Z,99.99
2017-11-27T03:57:06.461Z,99.99
2017-11-27T03:58:15.542Z,99.99
2017-11-27T03:59:24.381Z,99.99
2017-11-27T04:00:33.224Z,99.99
2017-11-27T04:01:42.554Z,99.99
2017-11-27T04:02:51.392Z,99.99
2017-11-27T04:04:00.229Z,99.99
2017-11-27T04:05:09.348Z,99.99
2017-11-27T04:06:18.196Z,99.99
2017-11-27T04:07:27.185Z,99.99
2017-11-27T04:08:36.304Z,99.99
2017-11-27T04:09:45.145Z,99.99
2017-11-27T04:10:53.988Z,99.99
2017-11-27T04:12:02.829Z,99.99
2017-11-27T04:13:11.970Z,99.99
2017-11-27T04:14:21.093Z,99.99
2017-11-27T04:15:30.229Z,99.99
2017-11-27T04:16:39.072Z,99.99
2017-11-27T04:17:47.911Z,99.99
2017-11-27T04:18:57.184Z,99.99
2017-11-27T04:20:06.027Z,99.99
2017-11-27T04:21:14.866Z,99.99
2017-11-27T04:22:23.707Z,99.99
2017-11-27T04:23:32.549Z,99.99
2017-11-27T04:24:41.391Z,99.99
2017-11-27T04:25:50.233Z,99.99
2017-11-27T04:26:59.072Z,99.99
2017-11-27T04:28:07.914Z,99.99
2017-11-27T04:29:16.757Z,99.99
2017-11-27T04:30:25.749Z,99.99
2017-11-27T04:31:34.588Z,99.99
2017-11-27T04:32:43.430Z,99.99
2017-11-27T04:33:52.272Z,99.99
2017-11-27T04:35:01.114Z,99.99
2017-11-27T04:36:10.055Z,99.99
2017-11-27T04:37:18.896Z,99.99
2017-11-27T04:38:27.738Z,99.99
2017-11-27T04:39:36.577Z,99.99
2017-11-27T04:40:45.421Z,99.99
2017-11-27T04:41:54.594Z,99.99
2017-11-27T04:43:03.435Z,99.99
2017-11-27T04:44:12.274Z,99.99
2017-11-27T04:45:21.115Z,99.99
2017-11-27T04:46:29.951Z,99.99
2017-11-27T04:47:39.047Z,99.99
2017-11-27T04:48:47.889Z,99.99
2017-11-27T04:49:56.730Z,99.99
2017-11-27T04:51:05.577Z,99.99
2017-11-27T04:52:14.418Z,99.99
2017-11-27T04:53:23.637Z,99.99
2017-11-27T04:54:32.480Z,99.99
2017-11-27T04:55:41.605Z,99.99
2017-11-27T04:56:50.449Z,99.99
2017-11-27T04:57:59.288Z,99.99
2017-11-27T04:59:08.559Z,99.99
2017-11-27T05:00:17.687Z,99.99
2017-11-27T05:01:26.524Z,99.99
2017-11-27T05:02:35.650Z,99.99
2017-11-27T05:03:44.496Z,99.99
2017-11-27T05:04:53.722Z,99.99
2017-11-27T05:06:02.560Z,99.99
2017-11-27T05:07:11.399Z,99.99
2017-11-27T05:08:20.242Z,99.99
2017-11-27T05:09:29.081Z,99.99
2017-11-27T05:10:38.202Z,99.99
2017-11-27T05:11:47.042Z,99.99
2017-11-27T05:12:55.883Z,99.99
2017-11-27T05:14:04.726Z,99.99
2017-11-27T05:15:13.569Z,99.99
2017-11-27T05:16:22.660Z,99.99
2017-11-27T05:17:31.501Z,99.99
2017-11-27T05:18:40.347Z,99.99
2017-11-27T05:19:49.190Z,99.99
2017-11-27T05:20:58.035Z,99.99
2017-11-27T05:22:07.023Z,99.99
2017-11-27T05:23:15.860Z,99.99
2017-11-27T05:24:24.700Z,99.99
2017-11-27T05:25:33.539Z,99.99
2017-11-27T05:26:42.662Z,99.99
2017-11-27T05:27:51.608Z,99.99
2017-11-27T05:29:00.451Z,99.99
2017-11-27T05:30:09.293Z,99.99
2017-11-27T05:31:18.138Z,99.99
2017-11-27T05:32:26.987Z,99.99
2017-11-27T05:33:35.973Z,99.99
2017-11-27T05:34:44.820Z,99.99
2017-11-27T05:35:53.649Z,99.99
2017-11-27T05:37:02.489Z,99.99
2017-11-27T05:38:11.330Z,99.99
2017-11-27T05:39:20.368Z,99.99
2017-11-27T05:40:29.210Z,99.99
2017-11-27T05:41:38.340Z,99.99
2017-11-27T05:42:47.468Z,99.99
2017-11-27T05:43:56.591Z,99.99
2017-11-27T05:45:05.735Z,99.99
2017-11-27T05:46:14.572Z,99.99
2017-11-27T05:47:23.414Z,99.99
2017-11-27T05:48:32.257Z,99.99
2017-11-27T05:49:41.387Z,99.99
2017-11-27T05:50:50.530Z,99.99
2017-11-27T05:51:59.371Z,99.99
2017-11-27T05:53:08.216Z,99.99
2017-11-27T05:54:17.058Z,99.99
2017-11-27T05:55:25.902Z,99.99
2017-11-27T05:56:34.792Z,99.99
2017-11-27T05:57:43.636Z,99.99
2017-11-27T05:58:52.473Z,99.99
2017-11-27T06:00:01.321Z,99.99
2017-11-27T06:01:10.445Z,99.99
2017-11-27T06:02:19.284Z,99.99
2017-11-27T06:03:28.137Z,99.99
2017-11-27T06:04:36.966Z,99.99
2017-11-27T06:05:45.811Z,99.99
2017-11-27T06:06:54.699Z,99.99
2017-11-27T06:08:03.541Z,99.99
2017-11-27T06:09:12.633Z,99.99
2017-11-27T06:10:21.477Z,99.99
2017-11-27T06:11:30.335Z,99.99
2017-11-27T06:12:39.197Z,99.99
2017-11-27T06:13:48.039Z,99.99
2017-11-27T06:14:56.885Z,99.99
2017-11-27T06:16:05.726Z,99.99
2017-11-27T06:17:14.954Z,99.99
2017-11-27T06:18:23.795Z,99.99
2017-11-27T06:19:32.641Z,99.99
2017-11-27T06:20:41.486Z,99.99
2017-11-27T06:21:50.337Z,99.99
2017-11-27T06:22:59.172Z,99.99
2017-11-27T06:24:08.014Z,99.99
2017-11-27T06:25:16.854Z,99.99
2017-11-27T06:26:25.698Z,99.99
2017-11-27T06:27:34.897Z,99.99
2017-11-27T06:28:43.741Z,99.99
2017-11-27T06:29:52.588Z,99.99
2017-11-27T06:31:01.446Z,99.99
2017-11-27T06:32:10.288Z,99.99
2017-11-27T06:33:19.381Z,99.99
2017-11-27T06:34:28.226Z,99.99
2017-11-27T06:35:37.097Z,99.99
2017-11-27T06:36:46.229Z,99.99
2017-11-27T06:37:55.073Z,99.99
2017-11-27T06:39:03.964Z,99.99
2017-11-27T06:40:12.804Z,99.99
2017-11-27T06:41:21.647Z,99.99
2017-11-27T06:42:30.502Z,99.99
2017-11-27T06:43:39.350Z,99.99
2017-11-27T06:44:48.620Z,99.99
2017-11-27T06:45:57.462Z,99.99
2017-11-27T06:47:06.601Z,99.99
2017-11-27T06:48:15.456Z,99.99
2017-11-27T06:49:24.300Z,99.99
2017-11-27T06:50:33.250Z,99.99
2017-11-27T06:51:42.092Z,99.99
2017-11-27T06:52:50.942Z,99.99
2017-11-27T06:54:00.064Z,99.99
2017-11-27T06:55:08.906Z,99.99
2017-11-27T06:56:18.150Z,99.99
2017-11-27T06:57:26.994Z,99.99
2017-11-27T06:58:36.111Z,99.99
2017-11-27T06:59:44.957Z,99.99
2017-11-27T07:00:54.082Z,99.99
2017-11-27T07:02:02.946Z,99.99
2017-11-27T07:03:11.786Z,99.99
2017-11-27T07:04:20.633Z,99.99
2017-11-27T07:05:29.481Z,99.99
2017-11-27T07:06:38.325Z,99.99
2017-11-27T07:07:47.731Z,99.99
2017-11-27T07:08:56.571Z,99.99
2017-11-27T07:10:05.414Z,99.99
2017-11-27T07:11:14.260Z,99.99
2017-11-27T07:12:23.108Z,99.99
2017-11-27T07:13:31.953Z,99.99
2017-11-27T07:14:40.796Z,99.99
2017-11-27T07:15:50.218Z,99.99
2017-11-27T07:16:59.063Z,99.99
2017-11-27T07:18:07.908Z,99.99
2017-11-27T07:19:17.001Z,99.99
2017-11-27T07:20:25.845Z,99.99
2017-11-27T07:21:35.075Z,99.99
2017-11-27T07:22:44.209Z,99.99
2017-11-27T07:23:53.047Z,99.99
2017-11-27T07:25:01.947Z,99.99
2017-11-27T07:26:10.782Z,99.99
2017-11-27T07:27:19.625Z,99.99
2017-11-27T07:28:28.476Z,99.99
2017-11-27T07:29:37.596Z,99.99
2017-11-27T07:30:46.493Z,99.99
2017-11-27T07:31:55.344Z,99.99
2017-11-27T07:33:04.183Z,99.99
2017-11-27T07:34:13.025Z,99.99
2017-11-27T07:35:21.871Z,99.99
2017-11-27T07:36:30.993Z,99.99
2017-11-27T07:37:40.115Z,99.99
2017-11-27T07:38:48.961Z,99.99
2017-11-27T07:39:57.805Z,99.99
2017-11-27T07:41:06.651Z,99.99
2017-11-27T07:42:15.600Z,99.99
2017-11-27T07:43:24.727Z,99.99
2017-11-27T07:44:33.578Z,99.99
2017-11-27T07:45:42.417Z,99.99
2017-11-27T07:46:51.261Z,99.99
2017-11-27T07:48:00.408Z,99.99
2017-11-27T07:49:09.249Z,99.99
2017-11-27T07:50:18.385Z,99.99
2017-11-27T07:51:27.230Z,99.99
2017-11-27T07:52:36.074Z,99.99
2017-11-27T07:53:45.347Z,99.99
2017-11-27T07:54:54.191Z,99.99
2017-11-27T07:56:03.033Z,99.99
2017-11-27T07:57:11.872Z,99.99
2017-11-27T07:58:20.716Z,99.99
2017-11-27T07:59:30.155Z,99.99
2017-11-27T08:00:39.002Z,99.99
2017-11-27T08:01:47.844Z,99.99
2017-11-27T08:02:56.978Z,99.99
2017-11-27T08:04:06.107Z,99.99
2017-11-27T08:05:14.948Z,99.99
2017-11-27T08:06:23.792Z,99.99
2017-11-27T08:07:32.632Z,99.99
2017-11-27T08:08:41.477Z,99.99
2017-11-27T08:09:50.599Z,99.99
2017-11-27T08:10:59.596Z,99.99
2017-11-27T08:12:08.448Z,99.99
2017-11-27T08:13:17.290Z,99.99
2017-11-27T08:14:26.129Z,99.99
2017-11-27T08:15:34.975Z,99.99
2017-11-27T08:16:43.971Z,99.99
2017-11-27T08:17:53.099Z,99.99
2017-11-27T08:19:01.942Z,99.99
2017-11-27T08:20:10.784Z,99.99
2017-11-27T08:21:19.629Z,99.99
2017-11-27T08:22:28.623Z,99.99
2017-11-27T08:23:37.468Z,99.99
2017-11-27T08:24:46.314Z,99.99
2017-11-27T08:25:55.157Z,99.99
2017-11-27T08:27:04.285Z,99.99
2017-11-27T08:28:13.332Z,99.99
2017-11-27T08:29:22.461Z,99.99
2017-11-27T08:30:31.307Z,99.99
2017-11-27T08:31:40.150Z,99.99
2017-11-27T08:32:49.273Z,99.99
2017-11-27T08:33:58.469Z,99.99
2017-11-27T08:35:07.604Z,99.99
2017-11-27T08:36:16.725Z,99.99
2017-11-27T08:37:25.567Z,99.99
2017-11-27T08:38:34.409Z,99.99
2017-11-27T08:39:43.640Z,99.99
2017-11-27T08:40:52.484Z,99.99
2017-11-27T08:42:01.328Z,99.99
2017-11-27T08:43:10.173Z,99.99
2017-11-27T08:44:19.017Z,99.99
2017-11-27T08:45:28.062Z,99.99
2017-11-27T08:46:36.904Z,99.99
2017-11-27T08:47:46.027Z,99.99
2017-11-27T08:48:54.871Z,99.99
2017-11-27T08:50:04.007Z,99.99
2017-11-27T08:51:12.900Z,99.99
2017-11-27T08:52:21.742Z,99.99
2017-11-27T08:53:30.583Z,99.99
2017-11-27T08:54:39.425Z,99.99
2017-11-27T08:55:48.273Z,99.99
2017-11-27T08:56:57.214Z,99.99
2017-11-27T08:58:06.059Z,99.99
2017-11-27T08:59:14.904Z,99.99
2017-11-27T09:00:23.747Z,99.99
2017-11-27T09:01:32.591Z,99.99
2017-11-27T09:02:41.487Z,99.99
2017-11-27T09:03:50.325Z,99.99
2017-11-27T09:04:59.170Z,99.99
2017-11-27T09:06:08.016Z,99.99
2017-11-27T09:07:16.859Z,99.99
2017-11-27T09:08:25.898Z,99.99
2017-11-27T09:09:34.749Z,99.99
2017-11-27T09:10:43.599Z,99.99
2017-11-27T09:11:52.722Z,99.99
2017-11-27T09:13:01.619Z,99.99
2017-11-27T09:14:11.101Z,99.99
2017-11-27T09:15:19.947Z,99.99
2017-11-27T09:16:28.786Z,99.99
2017-11-27T09:17:37.628Z,99.99
2017-11-27T09:18:46.472Z,99.99
2017-11-27T09:19:55.416Z,99.99
2017-11-27T09:21:04.818Z,99.99
2017-11-27T09:22:13.662Z,99.99
2017-11-27T09:23:22.509Z,99.99
2017-11-27T09:24:31.350Z,99.99
2017-11-27T09:25:40.291Z,99.99
2017-11-27T09:26:49.137Z,99.99
2017-11-27T09:27:58.259Z,99.99
2017-11-27T09:29:07.102Z,99.99
2017-11-27T09:30:16.229Z,99.99
2017-11-27T09:31:25.223Z,99.99
2017-11-27T09:32:34.065Z,99.99
2017-11-27T09:33:43.193Z,99.99
2017-11-27T09:34:52.033Z,99.99
2017-11-27T09:36:00.875Z,99.99
2017-11-27T09:37:09.817Z,99.99
2017-11-27T09:38:18.669Z,99.99
2017-11-27T09:39:27.793Z,99.99
2017-11-27T09:40:36.639Z,99.99
2017-11-27T09:41:45.483Z,99.99
2017-11-27T09:42:54.531Z,99.99
2017-11-27T09:44:03.372Z,99.99
2017-11-27T09:45:12.212Z,99.99
2017-11-27T09:46:21.055Z,99.99
2017-11-27T09:47:29.901Z,99.99
2017-11-27T09:48:39.071Z,99.99
2017-11-27T09:49:47.913Z,99.99
2017-11-27T09:50:56.759Z,99.99
2017-11-27T09:52:05.597Z,99.99
2017-11-27T09:53:14.445Z,99.99
2017-11-27T09:54:23.390Z,99.99
2017-11-27T09:55:32.514Z,99.99
2017-11-27T09:56:41.358Z,99.99
2017-11-27T09:57:50.203Z,99.99
2017-11-27T09:58:59.043Z,99.99
2017-11-27T10:00:08.089Z,99.99
2017-11-27T10:01:16.933Z,99.99
2017-11-27T10:02:25.776Z,99.99
2017-11-27T10:03:34.618Z,99.99
2017-11-27T10:04:43.463Z,99.99
2017-11-27T10:05:52.660Z,99.99
2017-11-27T10:07:01.501Z,99.99
2017-11-27T10:08:10.353Z,99.99
2017-11-27T10:09:19.185Z,99.99
2017-11-27T10:10:28.031Z,99.99
2017-11-27T10:11:37.021Z,99.99
2017-11-27T10:12:45.861Z,99.99
2017-11-27T10:13:54.706Z,99.99
2017-11-27T10:15:03.548Z,99.99
2017-11-27T10:16:12.391Z,99.99
2017-11-27T10:17:21.438Z,99.99
2017-11-27T10:18:30.281Z,99.99
2017-11-27T10:19:39.128Z,99.99
2017-11-27T10:20:47.973Z,99.99
2017-11-27T10:21:56.817Z,99.99
2017-11-27T10:23:06.137Z,99.99
2017-11-27T10:24:14.985Z,99.99
2017-11-27T10:25:23.822Z,99.99
2017-11-27T10:26:32.664Z,99.99
2017-11-27T10:27:41.608Z,99.99
2017-11-27T10:28:50.552Z,99.99
2017-11-27T10:29:59.395Z,99.99
2017-11-27T10:31:08.240Z,99.99
2017-11-27T10:32:17.363Z,99.99
2017-11-27T10:33:26.203Z,99.99
2017-11-27T10:34:35.195Z,99.96
2017-11-27T10:35:44.040Z,99.99
2017-11-27T10:36:52.885Z,99.58
2017-11-27T10:38:01.727Z,99.3
2017-11-27T10:39:10.572Z,98.35
2017-11-27T10:40:19.667Z,98.54
2017-11-27T10:41:28.510Z,98.63
2017-11-27T10:42:37.354Z,98.54
2017-11-27T10:43:46.198Z,97.78
2017-11-27T10:44:55.325Z,98.35
2017-11-27T10:46:04.320Z,97.59
2017-11-27T10:47:13.163Z,97.5
2017-11-27T10:48:22.009Z,97.97
2017-11-27T10:49:30.854Z,97.88
2017-11-27T10:50:39.697Z,97.12
2017-11-27T10:51:48.542Z,97.4
2017-11-27T10:52:57.387Z,96.73
2017-11-27T10:54:06.227Z,96.83
2017-11-27T10:55:15.069Z,97.12
2017-11-27T10:56:24.193Z,96.26
2017-11-27T10:57:33.190Z,96.45
2017-11-27T10:58:42.036Z,96.26
2017-11-27T10:59:51.168Z,95.98
2017-11-27T11:01:00.289Z,95.22
2017-11-27T11:02:09.414Z,94.93
2017-11-27T11:03:18.473Z,95.12
2017-11-27T11:04:27.301Z,95.03
2017-11-27T11:05:36.144Z,94.46
2017-11-27T11:06:45.027Z,94.56
2017-11-27T11:07:53.832Z,94.84
2017-11-27T11:09:03.080Z,94.56
2017-11-27T11:10:12.202Z,94.74
2017-11-27T11:11:21.045Z,94.56
2017-11-27T11:12:29.887Z,94.56
2017-11-27T11:13:39.016Z,94.65
2017-11-27T11:14:47.957Z,94.74
2017-11-27T11:15:56.801Z,94.18
2017-11-27T11:17:05.641Z,94.84
2017-11-27T11:18:14.486Z,94.84
2017-11-27T11:19:23.326Z,94.74
2017-11-27T11:20:32.171Z,94.08
2017-11-27T11:21:41.017Z,94.27
2017-11-27T11:22:49.858Z,94.18
2017-11-27T11:23:58.701Z,94.56
2017-11-27T11:25:07.545Z,93.7
2017-11-27T11:26:16.541Z,94.18
2017-11-27T11:27:25.382Z,93.89
2017-11-27T11:28:34.235Z,94.08
2017-11-27T11:29:43.074Z,93.61
2017-11-27T11:30:51.910Z,93.23
2017-11-27T11:32:00.900Z,93.7
2017-11-27T11:33:09.741Z,93.61
2017-11-27T11:34:18.586Z,93.61
2017-11-27T11:35:27.432Z,93.13
2017-11-27T11:36:36.561Z,93.23
2017-11-27T11:37:45.558Z,92.85
2017-11-27T11:38:54.399Z,92.47
2017-11-27T11:40:03.526Z,92.57
2017-11-27T11:41:12.655Z,92.57
2017-11-27T11:42:21.495Z,92.57
2017-11-27T11:43:30.436Z,92.47
2017-11-27T11:44:39.281Z,92.47
2017-11-27T11:45:48.125Z,92.76
2017-11-27T11:46:56.967Z,92.38
2017-11-27T11:48:05.808Z,92.57
2017-11-27T11:49:14.949Z,92.57
2017-11-27T11:50:23.791Z,92.18
2017-11-27T11:51:32.635Z,91.99
2017-11-27T11:52:41.480Z,91.71
2017-11-27T11:53:50.320Z,92.28
2017-11-27T11:54:59.163Z,91.33
2017-11-27T11:56:08.308Z,91.99
2017-11-27T11:57:17.152Z,91.52
2017-11-27T11:58:26.272Z,91.42
2017-11-27T11:59:35.115Z,91.24
2017-11-27T12:00:44.107Z,91.52
2017-11-27T12:01:53.250Z,91.71
2017-11-27T12:03:02.093Z,91.75
2017-11-27T12:04:10.937Z,91.71
2017-11-27T12:05:19.779Z,91.33
2017-11-27T12:06:28.723Z,91.52
2017-11-27T12:07:37.568Z,91.33
2017-11-27T12:08:46.410Z,91.52
2017-11-27T12:09:55.551Z,91.38
2017-11-27T12:11:04.394Z,91.19
2017-11-27T12:12:13.388Z,90.95
2017-11-27T12:13:22.227Z,90.95
2017-11-27T12:14:31.072Z,91.09
2017-11-27T12:15:39.916Z,90.9
2017-11-27T12:16:48.759Z,90.95
2017-11-27T12:17:57.929Z,91
2017-11-27T12:19:06.775Z,90.9
2017-11-27T12:20:15.620Z,90.48
2017-11-27T12:21:24.463Z,90.52
2017-11-27T12:22:33.311Z,90.71
2017-11-27T12:23:42.252Z,90.71
2017-11-27T12:24:51.095Z,90.38
2017-11-27T12:25:59.939Z,90.33
2017-11-27T12:27:09.062Z,90.52
2017-11-27T12:28:17.903Z,90.33
2017-11-27T12:29:26.744Z,90.33
2017-11-27T12:30:35.586Z,90.43
2017-11-27T12:31:44.430Z,90.43
2017-11-27T12:32:53.272Z,90.52
2017-11-27T12:34:02.398Z,90.43
2017-11-27T12:35:11.247Z,90.52
2017-11-27T12:36:20.088Z,90.24
2017-11-27T12:37:28.929Z,90.05
2017-11-27T12:38:37.773Z,89.48
2017-11-27T12:39:46.616Z,89.58
2017-11-27T12:40:55.463Z,89.58
2017-11-27T12:42:04.309Z,89.1
2017-11-27T12:43:13.191Z,88.81
2017-11-27T12:44:21.992Z,89.1
2017-11-27T12:45:31.133Z,88.91
2017-11-27T12:46:40.054Z,89.29
2017-11-27T12:47:48.898Z,88.34
2017-11-27T12:48:57.744Z,88.15
2017-11-27T12:50:06.587Z,88.15
2017-11-27T12:51:15.433Z,88.34
2017-11-27T12:52:24.377Z,88.43
2017-11-27T12:53:33.222Z,88.15
2017-11-27T12:54:42.068Z,88.15
2017-11-27T12:55:50.911Z,88.15
2017-11-27T12:56:59.752Z,87.77
2017-11-27T12:58:08.595Z,87.87
2017-11-27T12:59:17.439Z,87.87
2017-11-27T13:00:26.566Z,87.77
2017-11-27T13:01:35.414Z,88.06
2017-11-27T13:02:44.581Z,87.49
2017-11-27T13:03:53.841Z,87.3
2017-11-27T13:05:02.685Z,86.91
2017-11-27T13:06:11.766Z,87.49
2017-11-27T13:07:20.912Z,87.11
2017-11-27T13:08:29.795Z,86.82
2017-11-27T13:09:38.749Z,87.01
2017-11-27T13:10:47.600Z,86.44
2017-11-27T13:11:56.449Z,86.16
2017-11-27T13:13:05.304Z,86.25
2017-11-27T13:14:14.167Z,86.25
2017-11-27T13:15:23.369Z,85.97
2017-11-27T13:16:32.533Z,85.78
2017-11-27T13:17:41.419Z,85.3
2017-11-27T13:18:50.585Z,85.3
2017-11-27T13:19:59.688Z,85.02
2017-11-27T13:21:08.950Z,85.11
2017-11-27T13:22:17.791Z,85.11
2017-11-27T13:23:26.648Z,85.11
2017-11-27T13:24:36.066Z,85.3
2017-11-27T13:25:44.986Z,84.74
2017-11-27T13:26:53.831Z,84.64
2017-11-27T13:28:02.773Z,84.26
2017-11-27T13:29:11.996Z,84.17
2017-11-27T13:30:21.471Z,83.78
2017-11-27T13:31:30.567Z,83.78
2017-11-27T13:32:39.429Z,83.97
2017-11-27T13:33:48.521Z,83.5
2017-11-27T13:34:57.468Z,83.31
2017-11-27T13:36:07.204Z,83.22
2017-11-27T13:37:16.279Z,83.12
2017-11-27T13:38:25.481Z,82.93
2017-11-27T13:39:34.626Z,83.12
2017-11-27T13:40:43.475Z,82.88
2017-11-27T13:41:52.352Z,82.84
2017-11-27T13:43:01.800Z,82.88
2017-11-27T13:44:10.992Z,82.55
2017-11-27T13:45:20.053Z,82.36
2017-11-27T13:46:28.916Z,81.93
2017-11-27T13:47:37.759Z,81.79
2017-11-27T13:48:46.666Z,81.88
2017-11-27T13:49:55.806Z,81.51
2017-11-27T13:51:05.025Z,81.7
2017-11-27T13:52:14.190Z,81.13
2017-11-27T13:53:23.059Z,81.04
2017-11-27T13:54:31.932Z,80.75
2017-11-27T13:55:40.950Z,80.75
2017-11-27T13:56:50.112Z,80.65
2017-11-27T13:57:59.003Z,80.56
2017-11-27T13:59:08.100Z,80.46
2017-11-27T14:00:17.266Z,80.32
2017-11-27T14:01:26.917Z,80.13
2017-11-27T14:02:36.369Z,79.94
2017-11-27T14:03:45.871Z,79.94
2017-11-27T14:04:55.023Z,79.17
2017-11-27T14:06:03.872Z,79.17
2017-11-27T14:07:13.359Z,79.65
2017-11-27T14:08:22.236Z,79.27
2017-11-27T14:09:31.431Z,78.61
2017-11-27T14:10:40.371Z,78.32
2017-11-27T14:11:50.069Z,78.03
2017-11-27T14:12:59.063Z,77.28
2017-11-27T14:14:08.065Z,77.18
2017-11-27T14:15:17.083Z,76.8
2017-11-27T14:16:26.020Z,76.42
2017-11-27T14:17:34.911Z,76.23
2017-11-27T14:18:44.014Z,76.14
2017-11-27T14:19:52.896Z,75.38
2017-11-27T14:21:01.787Z,74.9
2017-11-27T14:22:10.952Z,74.71
2017-11-27T14:23:20.024Z,74.33
2017-11-27T14:24:30.159Z,73.48
2017-11-27T14:25:39.018Z,72.81
2017-11-27T14:26:47.886Z,72.44
2017-11-27T14:27:56.784Z,72.25
2017-11-27T14:29:06.325Z,71.77
2017-11-27T14:30:15.988Z,71.48
2017-11-27T14:31:24.977Z,70.92
2017-11-27T14:32:33.833Z,70.54
2017-11-27T14:33:42.692Z,70.44
2017-11-27T14:34:51.538Z,70.44
2017-11-27T14:36:00.653Z,70.06
2017-11-27T14:37:09.556Z,69.78
2017-11-27T14:38:18.501Z,68.92
2017-11-27T14:39:27.897Z,68.64
2017-11-27T14:40:36.746Z,68.54
2017-11-27T14:41:45.854Z,68.16
2017-11-27T14:42:54.709Z,67.79
2017-11-27T14:44:03.773Z,67.12
2017-11-27T14:45:12.615Z,67.31
2017-11-27T14:46:21.772Z,66.83
2017-11-27T14:47:30.716Z,66.36
2017-11-27T14:48:39.566Z,66.36